sensor_id;sensor_type;location;lat;lon;timestamp;pressure;altitude;pressure_sealevel;temperature;humidity
43681;BME280;29281;50.356;30.894;2023-04-12T00:00:51;99337.94;;;11.80;88.45
43681;BME280;29281;50.356;30.894;2023-04-12T00:01:56;99336.05;;;11.91;88.70
43681;BME280;29281;50.356;30.894;2023-04-12T00:03:03;99332.26;;;11.94;89.56
43681;BME280;29281;50.356;30.894;2023-04-12T00:04:09;99331.84;;;11.89;87.58
43681;BME280;29281;50.356;30.894;2023-04-12T00:05:17;99325.67;;;11.88;91.13
43681;BME280;29281;50.356;30.894;2023-04-12T00:06:19;99325.48;;;11.80;87.01
43681;BME280;29281;50.356;30.894;2023-04-12T00:07:24;99322.69;;;11.82;88.01
43681;BME280;29281;50.356;30.894;2023-04-12T00:08:28;99326.09;;;11.93;89.37
43681;BME280;29281;50.356;30.894;2023-04-12T00:09:35;99328.20;;;11.90;89.99
43681;BME280;29281;50.356;30.894;2023-04-12T00:10:41;99326.84;;;11.75;87.77
43681;BME280;29281;50.356;30.894;2023-04-12T00:11:45;99323.08;;;11.77;86.80
43681;BME280;29281;50.356;30.894;2023-04-12T00:12:47;99322.04;;;11.89;89.03
43681;BME280;29281;50.356;30.894;2023-04-12T00:13:51;99320.16;;;11.80;87.77
43681;BME280;29281;50.356;30.894;2023-04-12T00:14:54;99315.62;;;11.71;88.98
43681;BME280;29281;50.356;30.894;2023-04-12T00:16:00;99319.64;;;11.66;88.54
43681;BME280;29281;50.356;30.894;2023-04-12T00:17:04;99316.35;;;11.52;89.09
43681;BME280;29281;50.356;30.894;2023-04-12T00:18:07;99314.87;;;11.59;89.50
43681;BME280;29281;50.356;30.894;2023-04-12T00:19:11;99320.02;;;11.61;88.61
43681;BME280;29281;50.356;30.894;2023-04-12T00:20:14;99311.53;;;11.67;89.80
43681;BME280;29281;50.356;30.894;2023-04-12T00:21:18;99317.11;;;11.64;90.23
43681;BME280;29281;50.356;30.894;2023-04-12T00:22:22;99313.05;;;11.60;90.97
43681;BME280;29281;50.356;30.894;2023-04-12T00:23:24;99315.00;;;11.58;91.21
43681;BME280;29281;50.356;30.894;2023-04-12T00:24:27;99310.19;;;11.52;91.49
43681;BME280;29281;50.356;30.894;2023-04-12T00:25:31;99306.30;;;11.56;91.86
43681;BME280;29281;50.356;30.894;2023-04-12T00:26:36;99311.62;;;11.56;92.07
43681;BME280;29281;50.356;30.894;2023-04-12T00:27:39;99312.13;;;11.50;91.43
43681;BME280;29281;50.356;30.894;2023-04-12T00:28:45;99306.89;;;11.59;93.18
43681;BME280;29281;50.356;30.894;2023-04-12T00:29:48;99309.78;;;11.77;93.14
43681;BME280;29281;50.356;30.894;2023-04-12T00:30:53;99310.81;;;11.65;91.81
43681;BME280;29281;50.356;30.894;2023-04-12T00:31:59;99316.81;;;11.57;92.00
43681;BME280;29281;50.356;30.894;2023-04-12T00:33:04;99311.25;;;11.40;92.45
43681;BME280;29281;50.356;30.894;2023-04-12T00:34:07;99306.91;;;11.39;93.56
43681;BME280;29281;50.356;30.894;2023-04-12T00:35:16;99308.46;;;11.41;93.88
43681;BME280;29281;50.356;30.894;2023-04-12T00:36:20;99313.19;;;11.38;93.51
43681;BME280;29281;50.356;30.894;2023-04-12T00:37:24;99312.09;;;11.40;94.65
43681;BME280;29281;50.356;30.894;2023-04-12T00:38:27;99305.72;;;11.52;97.25
43681;BME280;29281;50.356;30.894;2023-04-12T00:40:47;99305.80;;;11.41;94.68
43681;BME280;29281;50.356;30.894;2023-04-12T00:41:54;99305.47;;;11.35;95.98
43681;BME280;29281;50.356;30.894;2023-04-12T00:42:57;99311.05;;;11.32;97.02
43681;BME280;29281;50.356;30.894;2023-04-12T00:45:19;99307.95;;;11.26;99.64
43681;BME280;29281;50.356;30.894;2023-04-12T00:46:23;99303.86;;;11.22;98.95
43681;BME280;29281;50.356;30.894;2023-04-12T00:47:30;99304.23;;;11.18;99.09
43681;BME280;29281;50.356;30.894;2023-04-12T00:48:35;99303.98;;;11.21;100.00
43681;BME280;29281;50.356;30.894;2023-04-12T00:49:40;99298.72;;;11.31;100.00
43681;BME280;29281;50.356;30.894;2023-04-12T00:50:44;99304.45;;;11.26;100.00
43681;BME280;29281;50.356;30.894;2023-04-12T00:51:48;99294.79;;;11.25;100.00
43681;BME280;29281;50.356;30.894;2023-04-12T00:52:51;99305.49;;;11.14;100.00
43681;BME280;29281;50.356;30.894;2023-04-12T00:53:58;99316.50;;;11.09;100.00
43681;BME280;29281;50.356;30.894;2023-04-12T00:55:02;99297.52;;;11.14;100.00
43681;BME280;29281;50.356;30.894;2023-04-12T00:56:06;99307.47;;;11.01;100.00
43681;BME280;29281;50.356;30.894;2023-04-12T00:57:10;99293.68;;;11.07;100.00
43681;BME280;29281;50.356;30.894;2023-04-12T00:58:15;99303.59;;;11.05;100.00
43681;BME280;29281;50.356;30.894;2023-04-12T00:59:19;99289.80;;;11.11;100.00
43681;BME280;29281;50.356;30.894;2023-04-12T01:00:23;99290.44;;;11.03;100.00
43681;BME280;29281;50.356;30.894;2023-04-12T01:01:27;99305.22;;;10.96;100.00
43681;BME280;29281;50.356;30.894;2023-04-12T01:02:32;99307.34;;;11.02;100.00
43681;BME280;29281;50.356;30.894;2023-04-12T01:03:40;99315.59;;;10.99;100.00
43681;BME280;29281;50.356;30.894;2023-04-12T01:04:46;99305.94;;;10.98;100.00
43681;BME280;29281;50.356;30.894;2023-04-12T01:06:03;99308.19;;;11.03;100.00
43681;BME280;29281;50.356;30.894;2023-04-12T01:08:35;99304.34;;;10.75;100.00
43681;BME280;29281;50.356;30.894;2023-04-12T01:12:07;99298.66;;;10.79;100.00
43681;BME280;29281;50.356;30.894;2023-04-12T01:14:42;99288.77;;;10.70;100.00
43681;BME280;29281;50.356;30.894;2023-04-12T01:16:02;99289.55;;;10.61;100.00
43681;BME280;29281;50.356;30.894;2023-04-12T01:17:02;99287.91;;;10.49;100.00
43681;BME280;29281;50.356;30.894;2023-04-12T01:18:07;99284.41;;;10.48;100.00
43681;BME280;29281;50.356;30.894;2023-04-12T01:20:22;99284.88;;;10.53;100.00
43681;BME280;29281;50.356;30.894;2023-04-12T01:21:40;99282.92;;;10.55;100.00
43681;BME280;29281;50.356;30.894;2023-04-12T01:24:00;99280.73;;;10.61;100.00
43681;BME280;29281;50.356;30.894;2023-04-12T01:26:40;99280.83;;;10.38;100.00
43681;BME280;29281;50.356;30.894;2023-04-12T01:27:48;99276.37;;;10.39;100.00
43681;BME280;29281;50.356;30.894;2023-04-12T01:28:53;99268.97;;;10.42;100.00
43681;BME280;29281;50.356;30.894;2023-04-12T01:29:57;99273.56;;;10.40;100.00
43681;BME280;29281;50.356;30.894;2023-04-12T01:31:04;99271.55;;;10.33;100.00
43681;BME280;29281;50.356;30.894;2023-04-12T01:32:10;99279.88;;;10.28;100.00
43681;BME280;29281;50.356;30.894;2023-04-12T01:33:13;99267.20;;;10.32;100.00
43681;BME280;29281;50.356;30.894;2023-04-12T01:34:18;99268.05;;;10.32;100.00
43681;BME280;29281;50.356;30.894;2023-04-12T01:35:29;99254.55;;;10.24;100.00
43681;BME280;29281;50.356;30.894;2023-04-12T01:36:29;99267.69;;;10.26;100.00
43681;BME280;29281;50.356;30.894;2023-04-12T01:37:32;99265.31;;;10.23;100.00
43681;BME280;29281;50.356;30.894;2023-04-12T01:38:36;99259.61;;;10.27;100.00
43681;BME280;29281;50.356;30.894;2023-04-12T01:39:41;99258.05;;;10.25;100.00
43681;BME280;29281;50.356;30.894;2023-04-12T01:40:52;99258.56;;;10.18;100.00
43681;BME280;29281;50.356;30.894;2023-04-12T01:41:54;99256.36;;;10.12;100.00
43681;BME280;29281;50.356;30.894;2023-04-12T01:43:10;99253.47;;;10.15;100.00
43681;BME280;29281;50.356;30.894;2023-04-12T01:44:14;99254.43;;;10.14;100.00
43681;BME280;29281;50.356;30.894;2023-04-12T01:45:20;99256.23;;;10.25;100.00
43681;BME280;29281;50.356;30.894;2023-04-12T01:46:23;99246.73;;;10.23;100.00
43681;BME280;29281;50.356;30.894;2023-04-12T01:47:28;99255.02;;;10.29;100.00
43681;BME280;29281;50.356;30.894;2023-04-12T01:48:33;99245.85;;;10.33;100.00
43681;BME280;29281;50.356;30.894;2023-04-12T01:49:41;99252.72;;;10.36;100.00
43681;BME280;29281;50.356;30.894;2023-04-12T01:52:08;99246.94;;;10.31;100.00
43681;BME280;29281;50.356;30.894;2023-04-12T01:53:13;99242.00;;;10.26;100.00
43681;BME280;29281;50.356;30.894;2023-04-12T01:54:25;99247.30;;;10.26;100.00
43681;BME280;29281;50.356;30.894;2023-04-12T01:55:29;99239.22;;;10.28;100.00
43681;BME280;29281;50.356;30.894;2023-04-12T01:56:33;99241.02;;;10.38;100.00
43681;BME280;29281;50.356;30.894;2023-04-12T01:57:42;99241.27;;;10.35;100.00
43681;BME280;29281;50.356;30.894;2023-04-12T01:58:47;99242.84;;;10.27;100.00
43681;BME280;29281;50.356;30.894;2023-04-12T01:59:52;99237.64;;;10.36;100.00
43681;BME280;29281;50.356;30.894;2023-04-12T02:00:57;99229.33;;;10.30;100.00
43681;BME280;29281;50.356;30.894;2023-04-12T02:02:01;99241.16;;;10.26;100.00
43681;BME280;29281;50.356;30.894;2023-04-12T02:03:07;99234.59;;;10.41;100.00
43681;BME280;29281;50.356;30.894;2023-04-12T02:04:13;99233.42;;;10.34;100.00
43681;BME280;29281;50.356;30.894;2023-04-12T02:05:18;99233.31;;;10.24;100.00
43681;BME280;29281;50.356;30.894;2023-04-12T02:06:24;99229.09;;;10.33;100.00
43681;BME280;29281;50.356;30.894;2023-04-12T02:07:31;99232.23;;;10.27;100.00
43681;BME280;29281;50.356;30.894;2023-04-12T02:08:34;99229.83;;;10.12;100.00
43681;BME280;29281;50.356;30.894;2023-04-12T02:09:40;99230.23;;;10.08;100.00
43681;BME280;29281;50.356;30.894;2023-04-12T02:10:44;99225.52;;;10.23;100.00
43681;BME280;29281;50.356;30.894;2023-04-12T02:11:50;99217.55;;;10.23;100.00
43681;BME280;29281;50.356;30.894;2023-04-12T02:12:58;99218.64;;;10.20;100.00
43681;BME280;29281;50.356;30.894;2023-04-12T02:14:04;99223.44;;;10.15;100.00
43681;BME280;29281;50.356;30.894;2023-04-12T02:15:09;99218.38;;;10.12;100.00
43681;BME280;29281;50.356;30.894;2023-04-12T02:16:15;99220.89;;;10.25;100.00
43681;BME280;29281;50.356;30.894;2023-04-12T02:17:19;99220.42;;;10.08;100.00
43681;BME280;29281;50.356;30.894;2023-04-12T02:18:25;99215.13;;;10.08;100.00
43681;BME280;29281;50.356;30.894;2023-04-12T02:19:31;99214.74;;;10.24;100.00
43681;BME280;29281;50.356;30.894;2023-04-12T02:20:35;99218.77;;;10.18;100.00
43681;BME280;29281;50.356;30.894;2023-04-12T02:21:46;99214.88;;;10.11;100.00
43681;BME280;29281;50.356;30.894;2023-04-12T02:22:48;99222.27;;;10.08;100.00
43681;BME280;29281;50.356;30.894;2023-04-12T02:23:53;99213.67;;;10.15;100.00
43681;BME280;29281;50.356;30.894;2023-04-12T02:24:57;99214.03;;;10.11;100.00
43681;BME280;29281;50.356;30.894;2023-04-12T02:26:02;99220.78;;;10.15;100.00
43681;BME280;29281;50.356;30.894;2023-04-12T02:27:07;99215.16;;;9.97;100.00
43681;BME280;29281;50.356;30.894;2023-04-12T02:28:11;99212.30;;;9.89;100.00
43681;BME280;29281;50.356;30.894;2023-04-12T02:29:15;99216.52;;;9.92;100.00
43681;BME280;29281;50.356;30.894;2023-04-12T02:30:21;99206.12;;;10.00;100.00
43681;BME280;29281;50.356;30.894;2023-04-12T02:31:27;99212.38;;;9.99;100.00
43681;BME280;29281;50.356;30.894;2023-04-12T02:32:31;99212.47;;;10.08;100.00
43681;BME280;29281;50.356;30.894;2023-04-12T02:33:37;99214.30;;;10.19;100.00
43681;BME280;29281;50.356;30.894;2023-04-12T02:34:42;99204.75;;;10.16;100.00
43681;BME280;29281;50.356;30.894;2023-04-12T02:35:47;99207.31;;;10.07;100.00
43681;BME280;29281;50.356;30.894;2023-04-12T02:36:50;99213.55;;;10.17;100.00
43681;BME280;29281;50.356;30.894;2023-04-12T02:37:54;99209.33;;;10.14;100.00
43681;BME280;29281;50.356;30.894;2023-04-12T02:38:59;99208.28;;;10.06;100.00
43681;BME280;29281;50.356;30.894;2023-04-12T02:40:04;99209.48;;;10.02;100.00
43681;BME280;29281;50.356;30.894;2023-04-12T02:41:08;99206.00;;;10.01;100.00
43681;BME280;29281;50.356;30.894;2023-04-12T02:42:12;99202.63;;;9.99;100.00
43681;BME280;29281;50.356;30.894;2023-04-12T02:43:15;99205.16;;;10.01;100.00
43681;BME280;29281;50.356;30.894;2023-04-12T02:44:20;99197.80;;;10.04;100.00
43681;BME280;29281;50.356;30.894;2023-04-12T02:45:25;99200.09;;;9.98;100.00
43681;BME280;29281;50.356;30.894;2023-04-12T02:46:30;99192.50;;;9.93;100.00
43681;BME280;29281;50.356;30.894;2023-04-12T02:47:33;99194.90;;;10.07;100.00
43681;BME280;29281;50.356;30.894;2023-04-12T02:48:37;99185.14;;;9.97;100.00
43681;BME280;29281;50.356;30.894;2023-04-12T02:49:40;99188.75;;;10.07;100.00
43681;BME280;29281;50.356;30.894;2023-04-12T02:50:44;99182.59;;;10.06;100.00
43681;BME280;29281;50.356;30.894;2023-04-12T02:51:48;99188.03;;;10.05;100.00
43681;BME280;29281;50.356;30.894;2023-04-12T02:52:53;99191.77;;;10.02;100.00
43681;BME280;29281;50.356;30.894;2023-04-12T02:53:56;99188.88;;;9.94;100.00
43681;BME280;29281;50.356;30.894;2023-04-12T02:55:02;99183.38;;;9.86;100.00
43681;BME280;29281;50.356;30.894;2023-04-12T02:56:05;99180.47;;;9.89;100.00
43681;BME280;29281;50.356;30.894;2023-04-12T02:57:11;99180.59;;;9.87;100.00
43681;BME280;29281;50.356;30.894;2023-04-12T02:58:16;99183.84;;;9.91;100.00
43681;BME280;29281;50.356;30.894;2023-04-12T02:59:22;99178.99;;;9.96;100.00
43681;BME280;29281;50.356;30.894;2023-04-12T03:00:35;99184.42;;;9.95;100.00
43681;BME280;29281;50.356;30.894;2023-04-12T03:01:40;99177.06;;;9.98;100.00
43681;BME280;29281;50.356;30.894;2023-04-12T03:02:50;99186.98;;;9.85;100.00
43681;BME280;29281;50.356;30.894;2023-04-12T03:03:59;99185.30;;;9.84;100.00
43681;BME280;29281;50.356;30.894;2023-04-12T03:05:15;99181.08;;;9.93;100.00
43681;BME280;29281;50.356;30.894;2023-04-12T03:06:20;99180.56;;;9.99;100.00
43681;BME280;29281;50.356;30.894;2023-04-12T03:07:24;99176.14;;;9.88;100.00
43681;BME280;29281;50.356;30.894;2023-04-12T03:08:28;99175.53;;;9.84;100.00
43681;BME280;29281;50.356;30.894;2023-04-12T03:09:36;99180.84;;;9.84;100.00
43681;BME280;29281;50.356;30.894;2023-04-12T03:10:39;99184.81;;;9.90;100.00
43681;BME280;29281;50.356;30.894;2023-04-12T03:11:43;99176.81;;;10.01;100.00
43681;BME280;29281;50.356;30.894;2023-04-12T03:12:48;99179.47;;;10.01;100.00
43681;BME280;29281;50.356;30.894;2023-04-12T03:13:53;99176.86;;;9.90;100.00
43681;BME280;29281;50.356;30.894;2023-04-12T03:14:59;99172.28;;;9.92;100.00
43681;BME280;29281;50.356;30.894;2023-04-12T03:16:18;99172.23;;;10.03;100.00
43681;BME280;29281;50.356;30.894;2023-04-12T03:17:09;99174.45;;;9.87;100.00
43681;BME280;29281;50.356;30.894;2023-04-12T03:18:16;99167.89;;;10.02;100.00
43681;BME280;29281;50.356;30.894;2023-04-12T03:19:24;99175.01;;;10.02;100.00
43681;BME280;29281;50.356;30.894;2023-04-12T03:20:29;99172.72;;;9.97;100.00
43681;BME280;29281;50.356;30.894;2023-04-12T03:21:35;99168.50;;;9.95;100.00
43681;BME280;29281;50.356;30.894;2023-04-12T03:22:41;99168.78;;;9.92;100.00
43681;BME280;29281;50.356;30.894;2023-04-12T03:23:45;99169.34;;;9.95;100.00
43681;BME280;29281;50.356;30.894;2023-04-12T03:24:50;99170.79;;;9.99;100.00
43681;BME280;29281;50.356;30.894;2023-04-12T03:25:56;99169.27;;;9.85;100.00
43681;BME280;29281;50.356;30.894;2023-04-12T03:27:09;99173.56;;;9.98;100.00
43681;BME280;29281;50.356;30.894;2023-04-12T03:28:15;99163.08;;;9.96;100.00
43681;BME280;29281;50.356;30.894;2023-04-12T03:29:24;99169.23;;;9.97;100.00
43681;BME280;29281;50.356;30.894;2023-04-12T03:30:28;99160.66;;;10.04;100.00
43681;BME280;29281;50.356;30.894;2023-04-12T03:31:33;99162.95;;;9.98;100.00
43681;BME280;29281;50.356;30.894;2023-04-12T03:32:39;99156.81;;;9.97;100.00
43681;BME280;29281;50.356;30.894;2023-04-12T03:33:43;99159.69;;;10.05;100.00
43681;BME280;29281;50.356;30.894;2023-04-12T03:34:56;99163.08;;;9.96;100.00
43681;BME280;29281;50.356;30.894;2023-04-12T03:36:00;99155.48;;;10.03;100.00
43681;BME280;29281;50.356;30.894;2023-04-12T03:37:05;99152.83;;;10.03;100.00
43681;BME280;29281;50.356;30.894;2023-04-12T03:38:13;99151.14;;;10.02;100.00
43681;BME280;29281;50.356;30.894;2023-04-12T03:39:18;99137.10;;;10.11;100.00
43681;BME280;29281;50.356;30.894;2023-04-12T03:40:23;99153.98;;;10.10;100.00
43681;BME280;29281;50.356;30.894;2023-04-12T03:41:30;99148.23;;;10.05;100.00
43681;BME280;29281;50.356;30.894;2023-04-12T03:42:35;99144.22;;;10.10;100.00
43681;BME280;29281;50.356;30.894;2023-04-12T03:43:40;99145.53;;;10.16;100.00
43681;BME280;29281;50.356;30.894;2023-04-12T03:44:48;99152.45;;;10.07;100.00
43681;BME280;29281;50.356;30.894;2023-04-12T03:45:52;99144.09;;;10.12;100.00
43681;BME280;29281;50.356;30.894;2023-04-12T03:46:55;99152.58;;;10.06;100.00
43681;BME280;29281;50.356;30.894;2023-04-12T03:48:01;99159.14;;;9.91;100.00
43681;BME280;29281;50.356;30.894;2023-04-12T03:49:07;99154.28;;;9.96;100.00
43681;BME280;29281;50.356;30.894;2023-04-12T03:50:11;99145.88;;;9.91;100.00
43681;BME280;29281;50.356;30.894;2023-04-12T03:51:17;99155.52;;;9.92;100.00
43681;BME280;29281;50.356;30.894;2023-04-12T03:52:23;99150.78;;;9.95;100.00
43681;BME280;29281;50.356;30.894;2023-04-12T03:53:27;99157.05;;;9.94;100.00
43681;BME280;29281;50.356;30.894;2023-04-12T03:54:33;99148.13;;;9.95;100.00
43681;BME280;29281;50.356;30.894;2023-04-12T03:55:40;99148.80;;;10.08;100.00
43681;BME280;29281;50.356;30.894;2023-04-12T03:56:46;99149.33;;;10.02;100.00
43681;BME280;29281;50.356;30.894;2023-04-12T03:57:54;99150.66;;;9.97;100.00
43681;BME280;29281;50.356;30.894;2023-04-12T03:59:04;99154.16;;;9.97;100.00
43681;BME280;29281;50.356;30.894;2023-04-12T04:00:09;99144.74;;;10.04;100.00
43681;BME280;29281;50.356;30.894;2023-04-12T04:01:21;99150.37;;;10.11;100.00
43681;BME280;29281;50.356;30.894;2023-04-12T04:02:25;99153.30;;;10.08;100.00
43681;BME280;29281;50.356;30.894;2023-04-12T04:03:31;99141.20;;;10.15;100.00
43681;BME280;29281;50.356;30.894;2023-04-12T04:04:38;99142.75;;;10.17;100.00
43681;BME280;29281;50.356;30.894;2023-04-12T04:05:44;99142.28;;;10.12;100.00
43681;BME280;29281;50.356;30.894;2023-04-12T04:06:49;99148.85;;;9.97;100.00
43681;BME280;29281;50.356;30.894;2023-04-12T04:07:53;99146.03;;;10.10;100.00
43681;BME280;29281;50.356;30.894;2023-04-12T04:08:57;99141.82;;;10.18;100.00
43681;BME280;29281;50.356;30.894;2023-04-12T04:10:01;99152.30;;;10.09;100.00
43681;BME280;29281;50.356;30.894;2023-04-12T04:11:07;99143.10;;;10.24;100.00
43681;BME280;29281;50.356;30.894;2023-04-12T04:12:12;99142.26;;;10.23;100.00
43681;BME280;29281;50.356;30.894;2023-04-12T04:13:17;99140.03;;;10.08;100.00
43681;BME280;29281;50.356;30.894;2023-04-12T04:14:21;99138.20;;;10.19;100.00
43681;BME280;29281;50.356;30.894;2023-04-12T04:15:28;99138.48;;;10.37;100.00
43681;BME280;29281;50.356;30.894;2023-04-12T04:16:32;99144.66;;;10.27;100.00
43681;BME280;29281;50.356;30.894;2023-04-12T04:17:35;99150.94;;;10.26;100.00
43681;BME280;29281;50.356;30.894;2023-04-12T04:18:37;99142.98;;;10.26;100.00
43681;BME280;29281;50.356;30.894;2023-04-12T04:19:45;99144.81;;;10.14;100.00
43681;BME280;29281;50.356;30.894;2023-04-12T04:20:49;99150.64;;;10.08;100.00
43681;BME280;29281;50.356;30.894;2023-04-12T04:21:52;99149.92;;;10.06;100.00
43681;BME280;29281;50.356;30.894;2023-04-12T04:23:00;99152.83;;;10.03;100.00
43681;BME280;29281;50.356;30.894;2023-04-12T04:24:04;99138.80;;;10.23;100.00
43681;BME280;29281;50.356;30.894;2023-04-12T04:25:10;99144.76;;;10.36;100.00
43681;BME280;29281;50.356;30.894;2023-04-12T04:26:16;99137.42;;;10.29;100.00
43681;BME280;29281;50.356;30.894;2023-04-12T04:27:20;99141.58;;;10.21;100.00
43681;BME280;29281;50.356;30.894;2023-04-12T04:28:27;99139.23;;;10.28;100.00
43681;BME280;29281;50.356;30.894;2023-04-12T04:29:30;99137.55;;;10.27;100.00
43681;BME280;29281;50.356;30.894;2023-04-12T04:30:33;99137.80;;;10.24;100.00
43681;BME280;29281;50.356;30.894;2023-04-12T04:31:41;99135.30;;;10.11;100.00
43681;BME280;29281;50.356;30.894;2023-04-12T04:32:48;99143.59;;;10.18;100.00
43681;BME280;29281;50.356;30.894;2023-04-12T04:33:53;99134.80;;;10.17;100.00
43681;BME280;29281;50.356;30.894;2023-04-12T04:35:01;99139.03;;;10.09;100.00
43681;BME280;29281;50.356;30.894;2023-04-12T04:36:06;99137.10;;;10.11;100.00
43681;BME280;29281;50.356;30.894;2023-04-12T04:37:10;99141.17;;;10.26;100.00
43681;BME280;29281;50.356;30.894;2023-04-12T04:38:13;99135.42;;;10.21;100.00
43681;BME280;29281;50.356;30.894;2023-04-12T04:39:19;99138.34;;;10.07;100.00
43681;BME280;29281;50.356;30.894;2023-04-12T04:40:22;99138.55;;;10.15;100.00
43681;BME280;29281;50.356;30.894;2023-04-12T04:41:29;99137.80;;;10.24;100.00
43681;BME280;29281;50.356;30.894;2023-04-12T04:42:33;99140.02;;;10.19;100.00
43681;BME280;29281;50.356;30.894;2023-04-12T04:43:37;99141.44;;;10.12;100.00
43681;BME280;29281;50.356;30.894;2023-04-12T04:44:41;99143.90;;;10.04;100.00
43681;BME280;29281;50.356;30.894;2023-04-12T04:45:45;99132.14;;;10.17;100.00
43681;BME280;29281;50.356;30.894;2023-04-12T04:46:51;99135.55;;;10.19;100.00
43681;BME280;29281;50.356;30.894;2023-04-12T04:47:55;99138.14;;;10.31;100.00
43681;BME280;29281;50.356;30.894;2023-04-12T04:48:59;99136.45;;;10.30;100.00
43681;BME280;29281;50.356;30.894;2023-04-12T04:50:03;99134.89;;;10.27;100.00
43681;BME280;29281;50.356;30.894;2023-04-12T04:51:05;99141.20;;;10.15;100.00
43681;BME280;29281;50.356;30.894;2023-04-12T04:52:09;99134.92;;;10.16;100.00
43681;BME280;29281;50.356;30.894;2023-04-12T04:53:13;99134.58;;;10.20;100.00
43681;BME280;29281;50.356;30.894;2023-04-12T04:54:17;99136.95;;;10.23;100.00
43681;BME280;29281;50.356;30.894;2023-04-12T04:55:20;99136.58;;;10.28;100.00
43681;BME280;29281;50.356;30.894;2023-04-12T04:56:24;99140.55;;;10.34;100.00
43681;BME280;29281;50.356;30.894;2023-04-12T04:57:27;99137.55;;;10.27;100.00
43681;BME280;29281;50.356;30.894;2023-04-12T04:58:31;99131.02;;;10.31;100.00
43681;BME280;29281;50.356;30.894;2023-04-12T04:59:35;99133.61;;;10.21;100.00
43681;BME280;29281;50.356;30.894;2023-04-12T05:00:44;99135.42;;;10.21;100.00
43681;BME280;29281;50.356;30.894;2023-04-12T05:01:50;99131.40;;;10.27;100.00
43681;BME280;29281;50.356;30.894;2023-04-12T05:02:54;99125.78;;;10.20;100.00
43681;BME280;29281;50.356;30.894;2023-04-12T05:04:00;99133.05;;;10.07;100.00
43681;BME280;29281;50.356;30.894;2023-04-12T05:05:04;99132.05;;;10.19;100.00
43681;BME280;29281;50.356;30.894;2023-04-12T05:06:12;99133.48;;;10.44;100.00
43681;BME280;29281;50.356;30.894;2023-04-12T05:07:15;99135.77;;;10.48;100.00
43681;BME280;29281;50.356;30.894;2023-04-12T05:08:20;99129.55;;;10.38;100.00
43681;BME280;29281;50.356;30.894;2023-04-12T05:09:24;99133.20;;;10.26;100.00
43681;BME280;29281;50.356;30.894;2023-04-12T05:10:29;99132.77;;;10.21;100.00
43681;BME280;29281;50.356;30.894;2023-04-12T05:11:34;99137.70;;;10.14;100.00
43681;BME280;29281;50.356;30.894;2023-04-12T05:12:38;99130.58;;;10.15;100.00
43681;BME280;29281;50.356;30.894;2023-04-12T05:13:43;99139.05;;;10.20;100.00
43681;BME280;29281;50.356;30.894;2023-04-12T05:14:49;99129.49;;;10.17;100.00
43681;BME280;29281;50.356;30.894;2023-04-12T05:15:53;99133.42;;;10.34;100.00
43681;BME280;29281;50.356;30.894;2023-04-12T05:16:57;99130.05;;;10.32;100.00
43681;BME280;29281;50.356;30.894;2023-04-12T05:18:01;99128.88;;;10.25;100.00
43681;BME280;29281;50.356;30.894;2023-04-12T05:19:04;99130.55;;;10.26;100.00
43681;BME280;29281;50.356;30.894;2023-04-12T05:20:09;99119.69;;;10.29;100.00
43681;BME280;29281;50.356;30.894;2023-04-12T05:21:15;99122.34;;;10.29;100.00
43681;BME280;29281;50.356;30.894;2023-04-12T05:22:18;99131.74;;;10.33;100.00
43681;BME280;29281;50.356;30.894;2023-04-12T05:23:23;99129.73;;;10.14;100.00
43681;BME280;29281;50.356;30.894;2023-04-12T05:24:27;99128.55;;;10.18;100.00
43681;BME280;29281;50.356;30.894;2023-04-12T05:25:31;99125.47;;;10.34;100.00
43681;BME280;29281;50.356;30.894;2023-04-12T05:26:37;99127.99;;;10.36;100.00
43681;BME280;29281;50.356;30.894;2023-04-12T05:27:42;99126.00;;;10.17;100.00
43681;BME280;29281;50.356;30.894;2023-04-12T05:28:48;99120.34;;;10.21;100.00
43681;BME280;29281;50.356;30.894;2023-04-12T05:29:51;99116.78;;;10.00;100.00
43681;BME280;29281;50.356;30.894;2023-04-12T05:30:54;99122.16;;;10.21;100.00
43681;BME280;29281;50.356;30.894;2023-04-12T05:31:59;99114.08;;;10.23;100.00
43681;BME280;29281;50.356;30.894;2023-04-12T05:33:02;99118.97;;;10.27;100.00
43681;BME280;29281;50.356;30.894;2023-04-12T05:34:06;99124.28;;;10.27;100.00
43681;BME280;29281;50.356;30.894;2023-04-12T05:35:11;99117.87;;;10.30;100.00
43681;BME280;29281;50.356;30.894;2023-04-12T05:36:17;99120.41;;;10.31;100.00
43681;BME280;29281;50.356;30.894;2023-04-12T05:37:20;99119.13;;;10.14;100.00
43681;BME280;29281;50.356;30.894;2023-04-12T05:38:24;99114.91;;;10.12;100.00
43681;BME280;29281;50.356;30.894;2023-04-12T05:39:28;99111.55;;;10.10;100.00
43681;BME280;29281;50.356;30.894;2023-04-12T05:40:31;99116.85;;;10.21;100.00
43681;BME280;29281;50.356;30.894;2023-04-12T05:41:34;99118.59;;;10.32;100.00
43681;BME280;29281;50.356;30.894;2023-04-12T05:42:37;99112.70;;;10.28;100.00
43681;BME280;29281;50.356;30.894;2023-04-12T05:43:41;99114.79;;;10.13;100.00
43681;BME280;29281;50.356;30.894;2023-04-12T05:44:48;99115.04;;;10.10;100.00
43681;BME280;29281;50.356;30.894;2023-04-12T05:45:51;99112.64;;;10.18;100.00
43681;BME280;29281;50.356;30.894;2023-04-12T05:46:55;99105.92;;;10.03;100.00
43681;BME280;29281;50.356;30.894;2023-04-12T05:47:59;99111.59;;;9.99;100.00
43681;BME280;29281;50.356;30.894;2023-04-12T05:49:02;99107.20;;;10.09;100.00
43681;BME280;29281;50.356;30.894;2023-04-12T05:50:05;99109.48;;;10.13;100.00
43681;BME280;29281;50.356;30.894;2023-04-12T05:51:09;99105.27;;;10.22;100.00